Time;durP1;ratioP1;P1;durP2;ratioP2;P2;SDS_P1;SDS_P2;PMS_P1;PMS_P2;Temp;Humidity;BMP_temperature;BMP_pressure;BME280_temperature;BME280_humidity;BME280_pressure;Samples;Min_cycle;Max_cycle;Signal;HPM_P1;HPM_P2
2021/09/27 00:01:00;;;;;;;9.03;7.20;;;;;;;17.32;55.22;95483.47;5001672;28;20477;-70
2021/09/27 00:03:27;;;;;;;9.97;7.83;;;;;;;17.15;55.69;95479.38;5006801;28;20480;-70
2021/09/27 00:05:55;;;;;;;12.27;6.97;;;;;;;17.18;55.59;95493.94;5015017;28;20456;-69
2021/09/27 00:08:22;;;;;;;15.70;7.00;;;;;;;16.99;55.71;95485.13;5020684;28;20440;-71
2021/09/27 00:10:52;;;;;;;13.00;7.43;;;;;;;17.00;55.96;95482.22;5023457;28;20436;-69
2021/09/27 00:13:20;;;;;;;9.07;6.93;;;;;;;17.07;56.48;95493.25;5018943;28;20474;-71
2021/09/27 00:15:51;;;;;;;12.70;7.30;;;;;;;16.82;56.62;95496.13;5014619;28;20453;-70
2021/09/27 00:18:19;;;;;;;11.57;7.37;;;;;;;16.61;57.03;95494.75;5010282;28;20455;-70
2021/09/27 00:20:50;;;;;;;13.60;7.73;;;;;;;15.94;58.90;95479.63;5025709;28;20443;-70
2021/09/27 00:23:18;;;;;;;12.90;8.07;;;;;;;15.62;59.66;95489.06;5020879;28;20467;-69
2021/09/27 00:25:46;;;;;;;9.80;7.47;;;;;;;15.96;59.73;95484.63;5019871;28;20443;-70
2021/09/27 00:28:13;;;;;;;13.13;8.00;;;;;;;15.82;59.93;95496.91;5012097;28;20452;-70
2021/09/27 00:30:42;;;;;;;11.23;8.13;;;;;;;15.91;59.14;95495.25;5010269;28;20452;-70
2021/09/27 00:33:09;;;;;;;12.70;8.10;;;;;;;16.14;58.33;95491.91;5008988;28;20499;-69
2021/09/27 00:35:38;;;;;;;11.13;8.30;;;;;;;16.21;58.40;95473.88;5010765;28;20540;-69
2021/09/27 00:38:08;;;;;;;15.83;8.90;;;;;;;16.42;57.48;95485.09;5009387;28;20441;-69
2021/09/27 00:40:41;;;;;;;11.60;8.40;;;;;;;16.53;56.70;95484.75;5009330;28;20828;-68
2021/09/27 00:43:09;;;;;;;12.27;8.87;;;;;;;16.33;56.30;95474.31;5010109;28;20507;-71
2021/09/27 00:45:43;;;;;;;10.80;8.47;;;;;;;16.50;56.70;95481.88;5016211;28;20455;-69
2021/09/27 00:48:11;;;;;;;13.47;8.97;;;;;;;16.49;56.01;95469.72;5023947;28;20539;-69
2021/09/27 00:50:43;;;;;;;12.03;7.67;;;;;;;16.61;55.94;95472.78;5024928;28;20440;-70
2021/09/27 00:53:26;;;;;;;20.77;8.67;;;;;;;16.52;55.53;95469.97;5020185;28;20444;-69
2021/09/27 00:55:56;;;;;;;11.57;8.00;;;;;;;16.61;56.29;95468.28;5010672;28;20583;-70
2021/09/27 00:58:24;;;;;;;12.70;8.00;;;;;;;16.66;55.88;95464.81;5009487;28;20503;-69
2021/09/27 01:00:52;;;;;;;10.97;8.13;;;;;;;16.58;56.02;95450.34;5010126;28;20476;-69
2021/09/27 01:03:21;;;;;;;10.33;7.93;;;;;;;16.71;56.26;95457.63;5011524;28;20463;-69
2021/09/27 01:05:53;;;;;;;10.27;7.90;;;;;;;16.61;55.37;95444.47;5000231;28;20508;-70
2021/09/27 01:08:38;;;;;;;12.43;8.37;;;;;;;16.59;56.49;95459.84;5029320;28;20447;-69
2021/09/27 01:11:28;;;;;;;15.07;8.10;;;;;;;16.71;55.80;95457.63;5021972;28;20989;-70
2021/09/27 01:14:40;;;;;;;10.50;8.37;;;;;;;16.76;56.52;95454.13;5009243;28;20508;-71
2021/09/27 01:17:20;;;;;;;13.87;7.73;;;;;;;16.77;55.45;95458.38;5011531;28;21072;-70
2021/09/27 01:20:22;;;;;;;10.67;7.67;;;;;;;16.69;56.55;95448.38;5023097;28;20474;-72
2021/09/27 01:23:27;;;;;;;10.80;7.40;;;;;;;16.66;56.17;95438.38;5008645;28;20503;-70
2021/09/27 01:26:12;;;;;;;8.93;7.27;;;;;;;16.65;56.26;95448.16;5022532;28;20827;-70
2021/09/27 01:28:57;;;;;;;12.10;7.80;;;;;;;16.67;56.80;95446.00;5018396;28;20495;-70
2021/09/27 01:32:02;;;;;;;11.47;7.77;;;;;;;16.71;56.47;95441.75;5013209;28;20524;-68
2021/09/27 01:35:12;;;;;;;7.67;6.80;;;;;;;16.69;56.18;95443.88;5024447;28;20483;-68
2021/09/27 01:37:50;;;;;;;9.37;6.40;;;;;;;16.66;56.69;95433.06;5006696;28;20532;-70
2021/09/27 01:41:03;;;;;;;11.20;6.93;;;;;;;16.76;56.59;95446.97;5010590;28;20436;-69
2021/09/27 01:44:01;;;;;;;8.10;6.53;;;;;;;16.71;56.79;95435.66;5023806;28;20992;-69
2021/09/27 01:46:35;;;;;;;10.10;6.20;;;;;;;16.62;56.32;95448.72;5012201;28;20449;-69
2021/09/27 01:49:11;;;;;;;9.50;6.00;;;;;;;16.65;56.10;95442.84;5009575;28;20535;-69
2021/09/27 01:51:59;;;;;;;11.07;5.70;;;;;;;16.68;56.16;95452.88;5007733;28;20462;-70
2021/09/27 01:54:42;;;;;;;6.53;5.90;;;;;;;16.68;55.91;95447.56;5012524;28;21031;-68
2021/09/27 01:57:23;;;;;;;6.50;5.17;;;;;;;16.65;56.26;95442.84;5003804;28;20478;-69
2021/09/27 02:00:16;;;;;;;7.43;5.63;;;;;;;16.66;56.13;95443.66;5026214;28;20949;-69
2021/09/27 02:03:08;;;;;;;10.40;6.07;;;;;;;16.64;56.13;95451.84;5027828;28;20445;-70
2021/09/27 02:05:59;;;;;;;9.33;5.70;;;;;;;16.61;56.07;95451.63;5013778;28;20437;-70
2021/09/27 02:08:39;;;;;;;11.67;6.87;;;;;;;16.26;58.17;95450.03;5012287;28;21047;-69
2021/09/27 02:11:14;;;;;;;8.87;6.33;;;;;;;16.18;57.55;95445.34;5023150;28;20444;-69
2021/09/27 02:13:53;;;;;;;11.40;6.83;;;;;;;16.20;57.78;95445.88;5017237;28;20448;-71
2021/09/27 02:16:40;;;;;;;7.03;6.20;;;;;;;16.07;58.14;95447.31;5006147;28;20435;-71
2021/09/27 02:19:31;;;;;;;14.83;6.97;;;;;;;16.05;57.82;95443.34;5016713;28;20998;-71
2021/09/27 02:22:11;;;;;;;10.90;7.10;;;;;;;16.09;58.55;95428.50;5011119;28;20535;-71
2021/09/27 02:24:45;;;;;;;9.90;8.00;;;;;;;16.03;58.98;95440.97;5016216;28;20483;-71
2021/09/27 02:27:13;;;;;;;11.47;7.00;;;;;;;16.26;57.59;95444.75;5010211;28;20960;-71
2021/09/27 02:29:41;;;;;;;10.27;6.67;;;;;;;15.87;58.85;95450.09;5027500;28;20445;-70
2021/09/27 02:32:16;;;;;;;12.17;7.03;;;;;;;15.88;59.21;95453.50;5023793;28;21000;-71
2021/09/27 02:34:45;;;;;;;8.77;6.70;;;;;;;15.87;59.01;95459.84;5026872;28;20559;-70
2021/09/27 02:37:50;;;;;;;11.57;7.07;;;;;;;15.67;59.52;95452.06;5016340;28;20447;-71
2021/09/27 02:40:20;;;;;;;13.80;7.20;;;;;;;15.98;58.99;95440.22;5012575;28;20543;-70
2021/09/27 02:42:51;;;;;;;10.33;6.77;;;;;;;15.69;59.96;95444.66;5024294;28;20443;-70
2021/09/27 02:45:22;;;;;;;9.50;6.50;;;;;;;15.63;59.85;95432.53;5025610;28;20467;-68
2021/09/27 02:48:14;;;;;;;9.23;6.60;;;;;;;15.55;59.62;95422.50;5018163;28;20448;-69
2021/09/27 02:50:46;;;;;;;10.57;7.80;;;;;;;15.54;60.15;95447.38;5013163;28;20516;-69
2021/09/27 02:53:15;;;;;;;12.50;7.70;;;;;;;15.41;60.71;95451.41;5012497;28;20825;-69
2021/09/27 02:56:00;;;;;;;14.97;7.93;;;;;;;15.54;60.49;95457.94;5024917;28;20479;-68
2021/09/27 02:58:49;;;;;;;10.30;6.87;;;;;;;15.51;60.11;95455.84;5025670;28;20979;-69
2021/09/27 03:01:48;;;;;;;10.53;7.33;;;;;;;15.55;60.21;95448.94;5017795;28;20555;-70
2021/09/27 03:04:53;;;;;;;13.20;8.07;;;;;;;15.50;60.61;95457.69;5008633;28;20445;-69
2021/09/27 03:08:13;;;;;;;13.23;7.63;;;;;;;15.53;60.21;95440.53;5028785;28;20478;-69
2021/09/27 03:10:55;;;;;;;15.80;8.33;;;;;;;15.59;60.35;95455.25;5034791;28;20447;-69
2021/09/27 03:13:33;;;;;;;12.67;8.00;;;;;;;15.52;59.98;95449.47;5020640;28;20446;-69
2021/09/27 03:16:26;;;;;;;14.80;8.20;;;;;;;15.52;59.51;95449.47;5028358;28;20499;-70
2021/09/27 03:19:03;;;;;;;11.20;8.13;;;;;;;15.61;59.82;95451.28;5009785;28;20452;-70
2021/09/27 03:21:55;;;;;;;9.40;7.40;;;;;;;15.59;59.86;95452.63;5011467;28;20437;-69
2021/09/27 03:24:37;;;;;;;13.83;7.77;;;;;;;15.55;60.18;95454.22;5014113;28;20448;-68
2021/09/27 03:27:35;;;;;;;16.53;8.37;;;;;;;15.45;60.36;95454.28;5020254;28;21037;-68
2021/09/27 03:30:25;;;;;;;14.27;7.80;;;;;;;15.33;60.42;95451.16;5003670;28;20517;-68
2021/09/27 03:33:11;;;;;;;16.70;8.27;;;;;;;15.21;61.01;95449.59;5001123;28;21036;-69
2021/09/27 03:35:57;;;;;;;15.67;8.50;;;;;;;15.21;60.95;95449.59;4998521;28;20893;-69
2021/09/27 03:38:48;;;;;;;15.53;7.87;;;;;;;15.00;61.32;95448.09;4999585;28;20459;-68
2021/09/27 03:41:33;;;;;;;10.67;8.47;;;;;;;15.04;61.56;95443.06;4998660;28;20453;-70
2021/09/27 03:44:09;;;;;;;19.30;8.83;;;;;;;15.12;60.95;95429.31;4998191;28;20453;-69
2021/09/27 03:47:11;;;;;;;11.80;8.30;;;;;;;15.14;61.54;95425.31;5004008;28;20436;-69
2021/09/27 03:49:51;;;;;;;17.93;10.90;;;;;;;15.17;61.09;95427.44;4994260;28;20444;-68
2021/09/27 03:52:21;;;;;;;13.90;9.77;;;;;;;15.10;60.66;95419.03;5010327;28;20547;-68
2021/09/27 03:55:00;;;;;;;29.27;17.73;;;;;;;14.99;61.08;95429.88;5007073;28;20489;-67
2021/09/27 03:57:32;;;;;;;26.63;20.87;;;;;;;15.03;61.43;95421.19;5019273;28;20827;-68
2021/09/27 04:00:05;;;;;;;35.13;26.77;;;;;;;15.17;60.93;95416.09;5006919;28;20562;-69
2021/09/27 04:02:57;;;;;;;28.50;23.27;;;;;;;15.24;60.38;95406.81;4996563;28;20448;-68
2021/09/27 04:05:46;;;;;;;30.70;23.23;;;;;;;15.42;59.49;95413.34;5009309;28;20462;-70
2021/09/27 04:08:28;;;;;;;26.50;22.33;;;;;;;15.15;60.07;95412.94;5020027;28;20950;-69
2021/09/27 04:11:23;;;;;;;28.17;21.50;;;;;;;15.19;59.90;95409.50;5024075;28;21078;-68
2021/09/27 04:14:40;;;;;;;24.90;19.97;;;;;;;15.10;59.83;95392.63;5006877;28;20457;-68
2021/09/27 04:17:31;;;;;;;23.93;15.83;;;;;;;15.39;59.90;95407.78;5001636;28;20548;-69
2021/09/27 04:20:22;;;;;;;21.13;15.73;;;;;;;15.30;60.72;95414.69;5000696;28;20448;-68
2021/09/27 04:23:10;;;;;;;24.63;17.80;;;;;;;15.35;60.93;95427.88;5008996;28;20467;-68
2021/09/27 04:26:02;;;;;;;20.73;16.10;;;;;;;15.38;60.64;95427.34;5010262;28;20452;-67
2021/09/27 04:28:57;;;;;;;21.00;16.87;;;;;;;15.40;60.48;95436.56;5009217;28;20966;-67
2021/09/27 04:31:46;;;;;;;25.40;16.60;;;;;;;15.33;60.33;95432.66;5000749;28;20449;-67
2021/09/27 04:34:16;;;;;;;24.10;15.10;;;;;;;15.42;59.47;95445.03;4995193;28;20450;-67
2021/09/27 04:36:45;;;;;;;19.60;14.27;;;;;;;15.29;60.44;95413.91;5004164;28;20495;-67
2021/09/27 04:39:17;;;;;;;57.03;34.87;;;;;;;15.61;59.62;95437.28;4995189;28;20474;-68
2021/09/27 04:42:28;;;;;;;70.77;53.40;;;;;;;15.66;59.76;95445.16;5004072;28;20959;-69
2021/09/27 04:45:10;;;;;;;20.03;14.37;;;;;;;15.53;60.46;95440.53;5005493;28;20459;-65
2021/09/27 04:48:01;;;;;;;21.70;13.27;;;;;;;15.30;61.17;95431.34;5007481;28;20536;-67
2021/09/27 04:50:54;;;;;;;25.63;13.97;;;;;;;15.36;60.85;95437.41;5000993;28;20452;-66
2021/09/27 04:53:40;;;;;;;29.33;14.43;;;;;;;15.44;61.20;95442.16;5015068;28;20941;-65
2021/09/27 04:56:24;;;;;;;24.10;14.87;;;;;;;15.39;62.27;95440.28;4995395;28;20492;-66
2021/09/27 04:59:13;;;;;;;34.27;15.53;;;;;;;15.36;61.74;95440.84;5002964;28;21016;-66
2021/09/27 05:02:15;;;;;;;31.13;15.47;;;;;;;15.49;61.77;95450.03;5005455;28;20444;-67
2021/09/27 05:04:49;;;;;;;29.60;16.20;;;;;;;15.53;61.11;95456.38;5009923;28;20462;-66
2021/09/27 05:07:30;;;;;;;26.43;19.53;;;;;;;15.61;61.18;95464.50;5026381;28;20447;-68
2021/09/27 05:10:31;;;;;;;189.40;132.57;;;;;;;15.81;60.63;95468.88;5014754;28;20444;-67
2021/09/27 05:13:35;;;;;;;25.30;15.10;;;;;;;15.84;59.48;95463.81;5012881;28;20451;-65
2021/09/27 05:16:57;;;;;;;18.53;12.77;;;;;;;15.74;60.10;95474.47;5009839;28;21064;-66
2021/09/27 05:19:24;;;;;;;28.00;13.10;;;;;;;15.80;59.49;95477.88;4992789;28;20484;-64
2021/09/27 05:21:59;;;;;;;24.43;12.13;;;;;;;15.90;59.55;95488.38;5009543;28;20515;-65
2021/09/27 05:24:50;;;;;;;27.43;13.40;;;;;;;15.81;59.87;95474.16;5009855;28;20447;-64
2021/09/27 05:27:26;;;;;;;25.43;14.10;;;;;;;15.65;60.83;95470.03;5009272;28;20480;-64
2021/09/27 05:30:10;;;;;;;35.87;23.80;;;;;;;15.82;60.00;95468.59;5000522;28;20452;-65
2021/09/27 05:32:42;;;;;;;138.73;119.90;;;;;;;15.27;61.06;95463.59;5012875;28;20441;-66
2021/09/27 05:35:21;;;;;;;29.43;17.03;;;;;;;15.38;60.25;95464.31;5013689;28;20468;-71
2021/09/27 05:38:03;;;;;;;25.03;15.23;;;;;;;15.55;59.69;95480.63;5011561;28;20522;-71
2021/09/27 05:41:08;;;;;;;31.63;15.13;;;;;;;15.41;60.24;95477.81;5013755;28;20519;-70
2021/09/27 05:43:38;;;;;;;24.40;14.13;;;;;;;15.58;60.84;95474.81;5010993;28;20444;-71
2021/09/27 05:46:15;;;;;;;26.73;14.60;;;;;;;15.60;60.99;95473.47;5010009;28;20448;-72
2021/09/27 05:48:56;;;;;;;26.87;15.20;;;;;;;15.74;60.40;95473.66;5013810;28;20451;-72
2021/09/27 05:51:41;;;;;;;27.63;14.53;;;;;;;15.65;60.87;95475.31;5013117;28;20445;-70
2021/09/27 05:54:17;;;;;;;29.77;15.27;;;;;;;15.82;60.50;95476.53;5013586;28;20866;-68
2021/09/27 05:57:28;;;;;;;33.77;15.40;;;;;;;15.88;60.69;95480.72;5008282;28;20875;-68
2021/09/27 06:00:15;;;;;;;32.40;14.80;;;;;;;16.00;61.25;95475.09;5006039;28;20503;-71
2021/09/27 06:03:24;;;;;;;30.07;15.93;;;;;;;15.93;61.77;95466.69;5000499;28;20440;-71
2021/09/27 06:06:21;;;;;;;36.67;16.93;;;;;;;16.09;60.77;95476.09;5003790;28;20872;-70
2021/09/27 06:08:54;;;;;;;34.27;16.93;;;;;;;16.25;60.10;95464.34;5018043;28;20451;-74
2021/09/27 06:11:37;;;;;;;35.90;17.80;;;;;;;16.53;59.69;95465.47;5012763;28;20510;-71
2021/09/27 06:14:09;;;;;;;33.30;18.90;;;;;;;16.56;59.52;95455.13;5029220;28;20833;-69
2021/09/27 06:16:38;;;;;;;31.57;17.90;;;;;;;16.62;58.89;95459.31;5023984;28;20887;-71
2021/09/27 06:19:31;;;;;;;25.03;17.40;;;;;;;16.75;59.04;95461.25;5013326;28;20436;-71
2021/09/27 06:22:01;;;;;;;26.20;19.10;;;;;;;16.67;58.62;95472.47;5023937;28;20444;-70
2021/09/27 06:24:52;;;;;;;26.67;19.83;;;;;;;16.63;59.55;95474.09;5015751;28;20499;-73
2021/09/27 06:27:37;;;;;;;35.10;17.63;;;;;;;16.67;59.22;95461.88;5014514;28;20436;-68
2021/09/27 06:30:04;;;;;;;25.77;16.83;;;;;;;16.61;60.43;95468.28;5014461;28;20564;-72
2021/09/27 06:33:15;;;;;;;27.90;16.77;;;;;;;16.80;59.10;95455.16;5013925;28;20452;-72
2021/09/27 06:35:45;;;;;;;31.03;19.00;;;;;;;16.97;59.50;95464.22;5000958;28;20542;-71
2021/09/27 06:38:14;;;;;;;25.70;17.63;;;;;;;17.12;59.05;95458.75;5012070;28;20865;-70
2021/09/27 06:40:44;;;;;;;31.53;19.27;;;;;;;17.13;58.79;95465.63;5012779;28;20436;-73
2021/09/27 06:43:16;;;;;;;29.00;17.40;;;;;;;17.23;59.22;95470.03;5011514;28;20441;-71
2021/09/27 06:45:43;;;;;;;27.60;16.60;;;;;;;17.26;58.41;95466.03;5012503;28;20451;-72
2021/09/27 06:48:10;;;;;;;27.87;15.37;;;;;;;17.47;57.15;95460.22;5012441;28;20435;-69
2021/09/27 06:50:37;;;;;;;23.30;14.80;;;;;;;17.69;56.60;95464.97;5012956;28;20437;-69
2021/09/27 06:53:04;;;;;;;26.57;14.80;;;;;;;17.69;57.37;95462.31;5012316;28;20507;-70
2021/09/27 06:55:31;;;;;;;22.00;14.70;;;;;;;17.55;57.72;95461.47;5012323;28;20567;-65
2021/09/27 06:57:58;;;;;;;21.90;13.57;;;;;;;17.73;57.49;95473.94;5011904;28;20465;-68
2021/09/27 07:00:26;;;;;;;27.80;14.27;;;;;;;17.72;57.96;95467.06;5007186;28;20449;-73
2021/09/27 07:02:52;;;;;;;28.17;14.20;;;;;;;17.78;57.93;95460.63;5003361;28;20866;-72
2021/09/27 07:05:19;;;;;;;21.17;13.67;;;;;;;17.83;56.96;95460.53;5014271;28;20699;-72
2021/09/27 07:07:46;;;;;;;20.63;11.93;;;;;;;17.62;57.65;95461.91;5015995;28;20975;-65
2021/09/27 07:10:17;;;;;;;17.87;12.60;;;;;;;17.76;57.03;95462.75;5015718;28;20447;-72
2021/09/27 07:12:44;;;;;;;19.50;12.37;;;;;;;17.91;57.20;95457.25;5012781;28;20499;-70
2021/09/27 07:15:12;;;;;;;19.03;11.90;;;;;;;17.94;57.22;95454.81;5013239;28;20471;-72
2021/09/27 07:17:40;;;;;;;24.53;12.73;;;;;;;18.14;57.08;95451.06;5012276;28;20443;-69
2021/09/27 07:20:11;;;;;;;29.83;13.53;;;;;;;18.14;56.88;95438.59;5012165;28;20455;-69
2021/09/27 07:22:38;;;;;;;23.87;14.03;;;;;;;18.26;56.22;95440.00;5025421;28;20197;-71
2021/09/27 07:25:08;;;;;;;27.87;14.23;;;;;;;18.28;56.82;95427.25;5020984;28;20446;-72
2021/09/27 07:27:35;;;;;;;26.17;15.00;;;;;;;18.30;56.43;95425.09;5015680;28;20185;-71
2021/09/27 07:30:04;;;;;;;20.97;14.37;;;;;;;18.71;55.88;95432.09;5011525;28;20570;-71
2021/09/27 07:32:32;;;;;;;25.93;15.33;;;;;;;18.58;56.64;95421.44;5023683;28;20932;-67
2021/09/27 07:34:58;;;;;;;23.30;12.17;;;;;;;18.85;55.65;95430.25;5012118;28;20198;-68
2021/09/27 07:37:25;;;;;;;28.87;11.57;;;;;;;18.95;54.24;95430.06;5024071;28;20266;-70
2021/09/27 07:39:52;;;;;;;17.03;11.40;;;;;;;19.07;54.77;95427.69;5012823;28;20578;-69
2021/09/27 07:42:19;;;;;;;17.23;10.80;;;;;;;19.25;53.57;95409.31;5011769;28;20260;-70
2021/09/27 07:44:46;;;;;;;17.00;10.23;;;;;;;19.45;54.49;95419.53;5011689;28;20220;-67
2021/09/27 07:47:13;;;;;;;16.30;9.33;;;;;;;19.61;53.25;95418.13;5012259;28;20579;-72
2021/09/27 07:49:40;;;;;;;10.20;7.40;;;;;;;19.54;50.47;95423.06;5017975;28;20224;-67
2021/09/27 07:52:07;;;;;;;15.97;8.00;;;;;;;19.74;50.42;95422.63;5028739;28;20194;-70
2021/09/27 07:54:38;;;;;;;17.13;9.20;;;;;;;19.52;50.19;95426.03;5015378;28;20201;-69
2021/09/27 07:57:05;;;;;;;14.93;8.87;;;;;;;19.51;50.42;95421.00;5002335;28;20735;-73
2021/09/27 07:59:32;;;;;;;11.87;8.10;;;;;;;19.36;50.73;95418.69;5012108;28;20197;-69
2021/09/27 08:01:59;;;;;;;18.97;9.80;;;;;;;19.56;52.32;95426.22;4997645;28;20201;-71
2021/09/27 08:04:26;;;;;;;15.93;9.17;;;;;;;19.43;52.34;95416.41;5012634;28;20288;-66
2021/09/27 08:06:53;;;;;;;13.70;8.40;;;;;;;19.62;52.24;95417.03;5008736;28;20220;-67
2021/09/27 08:09:20;;;;;;;12.60;8.57;;;;;;;19.56;51.01;95420.91;5026237;28;20209;-66
2021/09/27 08:11:47;;;;;;;14.87;9.13;;;;;;;19.62;50.93;95415.16;5011152;28;20209;-72
2021/09/27 08:14:14;;;;;;;9.77;7.93;;;;;;;19.85;52.96;95408.03;5011377;28;20194;-69
2021/09/27 08:16:43;;;;;;;11.57;8.43;;;;;;;20.01;52.06;95417.22;5010974;28;20240;-67
2021/09/27 08:19:10;;;;;;;16.27;8.53;;;;;;;20.19;51.89;95424.28;5010698;28;20206;-72
2021/09/27 08:21:38;;;;;;;13.27;8.27;;;;;;;20.32;50.16;95417.31;5018915;28;20189;-71
2021/09/27 08:24:05;;;;;;;12.00;7.87;;;;;;;20.28;50.42;95417.13;5030028;28;20262;-71
2021/09/27 08:26:31;;;;;;;13.63;8.57;;;;;;;20.58;50.08;95403.09;5010503;28;20201;-73
2021/09/27 08:28:58;;;;;;;13.27;8.73;;;;;;;20.68;50.61;95410.00;5011012;28;20668;-69
2021/09/27 08:31:25;;;;;;;14.70;8.80;;;;;;;20.51;50.82;95401.94;5010282;28;20198;-71
2021/09/27 08:33:53;;;;;;;13.93;8.37;;;;;;;20.56;50.13;95396.47;5011055;28;20193;-70
2021/09/27 08:36:23;;;;;;;14.57;8.03;;;;;;;20.85;49.71;95400.25;5010186;28;20707;-68
2021/09/27 08:38:50;;;;;;;9.50;7.33;;;;;;;20.93;49.60;95396.81;5011257;28;20205;-67
2021/09/27 08:41:55;;;;;;;13.30;8.23;;;;;;;20.89;49.82;95403.06;5009529;28;20229;-68
2021/09/27 08:44:48;;;;;;;9.77;7.00;;;;;;;21.65;47.63;95391.06;5011415;28;20202;-71
2021/09/27 08:47:29;;;;;;;16.10;8.27;;;;;;;21.92;47.33;95396.13;5010225;28;20268;-70
2021/09/27 08:50:01;;;;;;;18.97;7.93;;;;;;;21.85;46.82;95390.47;5010585;28;20192;-70
2021/09/27 08:52:31;;;;;;;12.00;7.23;;;;;;;21.78;46.97;95379.44;5010437;28;20194;-70
2021/09/27 08:54:59;;;;;;;13.67;7.00;;;;;;;21.97;47.48;95380.72;5010716;28;20560;-69
2021/09/27 08:57:43;;;;;;;9.63;6.93;;;;;;;21.93;48.35;95377.13;5009756;28;20238;-71
2021/09/27 09:00:36;;;;;;;12.90;6.33;;;;;;;22.26;47.21;95369.41;4993015;28;20186;-67
2021/09/27 09:03:03;;;;;;;14.93;7.13;;;;;;;22.50;44.84;95372.31;5003017;28;20667;-71
2021/09/27 09:05:47;;;;;;;13.27;6.93;;;;;;;22.48;44.64;95361.16;5015053;28;20211;-68
2021/09/27 09:08:46;;;;;;;13.90;7.30;;;;;;;22.59;44.33;95367.00;5026236;28;20197;-72
2021/09/27 09:11:35;;;;;;;14.27;7.53;;;;;;;22.51;44.59;95360.56;5016777;28;20196;-68
2021/09/27 09:14:08;;;;;;;14.60;7.10;;;;;;;22.45;45.79;95367.16;5023315;28;20198;-67
2021/09/27 09:16:38;;;;;;;15.13;7.87;;;;;;;22.48;46.05;95376.44;5027551;28;20217;-66
2021/09/27 09:19:10;;;;;;;16.87;10.17;;;;;;;22.46;47.47;95368.75;5026982;28;20256;-66
2021/09/27 09:22:03;;;;;;;16.07;8.03;;;;;;;22.63;46.25;95358.03;5026942;28;20197;-70
2021/09/27 09:24:38;;;;;;;13.80;6.93;;;;;;;22.65;46.29;95355.03;5025883;28;21057;-69
2021/09/27 09:27:10;;;;;;;15.83;7.50;;;;;;;22.56;46.00;95352.38;5017676;28;20193;-72
2021/09/27 09:29:39;;;;;;;11.97;6.90;;;;;;;22.67;46.48;95347.47;5017636;28;20215;-72
2021/09/27 09:32:22;;;;;;;15.53;7.07;;;;;;;22.61;46.46;95338.84;5018002;28;20618;-70
2021/09/27 09:34:52;;;;;;;18.07;7.00;;;;;;;22.65;46.73;95334.44;5019236;28;20198;-73
2021/09/27 09:37:37;;;;;;;14.27;7.27;;;;;;;22.54;46.92;95333.19;5018442;28;20225;-66
2021/09/27 09:40:27;;;;;;;17.67;7.23;;;;;;;22.65;45.85;95331.78;5003731;28;20205;-71
2021/09/27 09:43:01;;;;;;;8.87;6.83;;;;;;;22.80;46.36;95325.91;5016154;28;20297;-65
2021/09/27 09:45:41;;;;;;;12.43;6.67;;;;;;;23.10;46.50;95318.69;5017150;28;20201;-72
2021/09/27 09:48:11;;;;;;;13.17;7.00;;;;;;;23.37;44.94;95322.78;5016528;28;20197;-70
2021/09/27 09:50:39;;;;;;;14.83;7.03;;;;;;;23.43;44.08;95326.84;5016874;28;20955;-67
2021/09/27 09:53:23;;;;;;;9.73;6.87;;;;;;;23.49;42.98;95322.84;5016600;28;20201;-69
2021/09/27 09:55:58;;;;;;;10.53;6.77;;;;;;;23.76;44.11;95323.09;5016180;28;20709;-72
2021/09/27 09:58:38;;;;;;;16.47;6.53;;;;;;;23.95;43.01;95317.28;5015962;28;20221;-69
2021/09/27 10:01:14;;;;;;;14.10;6.90;;;;;;;24.09;41.77;95320.47;5006378;28;20241;-71
2021/09/27 10:03:45;;;;;;;17.23;7.40;;;;;;;24.17;42.93;95319.59;5010766;28;20253;-72
2021/09/27 10:06:22;;;;;;;9.23;6.57;;;;;;;24.36;42.88;95314.50;5011087;28;20197;-67
2021/09/27 10:08:54;;;;;;;15.10;7.00;;;;;;;24.56;40.93;95305.63;5021270;28;20750;-71
2021/09/27 10:11:28;;;;;;;16.07;6.40;;;;;;;24.84;40.75;95311.16;5016211;28;20233;-66
2021/09/27 10:13:55;;;;;;;11.57;7.03;;;;;;;24.83;39.49;95310.38;5016963;28;20209;-73
2021/09/27 10:16:47;;;;;;;11.07;7.37;;;;;;;24.99;40.34;95297.06;5014475;28;20218;-72
2021/09/27 10:19:32;;;;;;;11.90;6.80;;;;;;;25.20;40.54;95302.31;5013220;28;20285;-70
2021/09/27 10:22:15;;;;;;;14.37;7.03;;;;;;;25.25;40.57;95280.63;5013142;28;20233;-68
2021/09/27 10:24:51;;;;;;;17.40;7.40;;;;;;;25.66;38.65;95283.00;5012919;28;20300;-74
2021/09/27 10:27:26;;;;;;;43.23;38.53;;;;;;;25.69;39.37;95298.44;5025925;28;20197;-71
2021/09/27 10:29:56;;;;;;;10.23;6.63;;;;;;;25.54;39.47;95283.03;4999928;28;20193;-70
2021/09/27 10:32:33;;;;;;;12.60;6.73;;;;;;;25.72;39.20;95281.63;5012964;28;20198;-72
2021/09/27 10:35:07;;;;;;;10.23;6.80;;;;;;;25.92;37.61;95275.28;5000125;28;20197;-70
2021/09/27 10:37:34;;;;;;;8.90;6.57;;;;;;;25.75;37.16;95275.56;5013075;28;20627;-68
2021/09/27 10:40:03;;;;;;;9.47;6.43;;;;;;;25.94;36.54;95262.31;5012922;28;20198;-69
2021/09/27 10:42:44;;;;;;;12.90;6.00;;;;;;;26.17;36.45;95252.56;5012852;28;20210;-70
2021/09/27 10:45:14;;;;;;;22.07;7.33;;;;;;;26.15;38.20;95249.44;4999532;28;20205;-71
2021/09/27 10:47:46;;;;;;;10.00;8.13;;;;;;;26.48;36.89;95255.28;5012494;28;20205;-72
2021/09/27 10:50:19;;;;;;;14.23;5.60;;;;;;;26.53;36.53;95246.94;5012915;28;20202;-66
2021/09/27 10:52:49;;;;;;;10.00;6.10;;;;;;;26.65;35.75;95241.50;5012457;28;20304;-68
2021/09/27 10:55:24;;;;;;;14.17;6.80;;;;;;;26.82;36.32;95233.06;5012884;28;20264;-70
2021/09/27 10:57:59;;;;;;;12.20;5.77;;;;;;;26.68;36.74;95237.31;5011940;28;20249;-73
2021/09/27 11:00:47;;;;;;;9.47;6.90;;;;;;;26.75;37.30;95230.22;5012161;28;20581;-71
2021/09/27 11:03:21;;;;;;;10.67;5.37;;;;;;;27.03;36.03;95224.72;5011995;28;20208;-71
2021/09/27 11:05:54;;;;;;;15.03;5.53;;;;;;;26.98;35.12;95225.78;4999865;28;20296;-71
2021/09/27 11:08:47;;;;;;;9.43;5.00;;;;;;;27.25;34.99;95217.88;5012119;28;20225;-75
2021/09/27 11:11:39;;;;;;;14.83;7.27;;;;;;;27.26;35.55;95219.44;4999289;28;20204;-74
2021/09/27 11:14:21;;;;;;;12.13;6.40;;;;;;;27.39;35.14;95218.22;5011016;28;20580;-70
2021/09/27 11:17:12;;;;;;;16.07;5.80;;;;;;;27.41;34.01;95210.56;5012041;28;20213;-74
2021/09/27 11:19:41;;;;;;;13.57;5.50;;;;;;;27.67;34.01;95197.22;5012725;28;20198;-68
2021/09/27 11:22:14;;;;;;;13.67;5.97;;;;;;;27.55;32.24;95194.69;5015109;28;20189;-69
2021/09/27 11:24:44;;;;;;;9.73;5.67;;;;;;;27.71;32.43;95198.09;5029355;28;20197;-74
2021/09/27 11:27:17;;;;;;;12.93;7.00;;;;;;;27.78;34.26;95200.91;5011967;28;20672;-71
2021/09/27 11:29:49;;;;;;;12.10;5.33;;;;;;;27.82;32.65;95188.28;5010810;28;20194;-69
2021/09/27 11:32:22;;;;;;;19.60;4.90;;;;;;;27.93;32.14;95189.28;5012008;28;20198;-67
2021/09/27 11:35:07;;;;;;;10.93;5.40;;;;;;;27.76;33.21;95195.09;5011969;28;20194;-73
2021/09/27 11:37:56;;;;;;;9.97;5.37;;;;;;;27.74;32.91;95163.13;5015536;28;20225;-71
2021/09/27 11:40:23;;;;;;;7.80;5.70;;;;;;;28.23;31.82;95176.72;5004557;28;20690;-73
2021/09/27 11:43:15;;;;;;;10.70;5.50;;;;;;;28.20;31.92;95177.44;5016049;28;20193;-69
2021/09/27 11:45:56;;;;;;;12.50;6.20;;;;;;;28.40;31.85;95178.13;5014986;28;20206;-71
2021/09/27 11:48:30;;;;;;;13.17;5.47;;;;;;;28.52;30.99;95176.06;5013133;28;20202;-74
2021/09/27 11:51:04;;;;;;;8.33;5.37;;;;;;;28.60;30.78;95164.25;5011630;28;20202;-71
2021/09/27 11:54:02;;;;;;;10.10;5.37;;;;;;;28.65;30.88;95172.03;5025268;28;20506;-69
2021/09/27 11:56:39;;;;;;;7.83;4.83;;;;;;;28.74;30.76;95180.63;5010889;28;20209;-72
2021/09/27 11:59:21;;;;;;;7.63;5.10;;;;;;;28.95;30.05;95175.56;5011242;28;20233;-72
2021/09/27 12:02:03;;;;;;;13.50;5.33;;;;;;;28.86;30.04;95172.34;4997385;28;20214;-70
2021/09/27 12:04:57;;;;;;;9.70;5.37;;;;;;;29.08;30.00;95169.91;5011609;28;20197;-68
2021/09/27 12:07:48;;;;;;;7.27;5.03;;;;;;;29.28;30.62;95165.97;5010790;28;20200;-66
2021/09/27 12:10:24;;;;;;;8.67;5.50;;;;;;;29.15;30.13;95167.34;5011625;28;20281;-67
2021/09/27 12:12:54;;;;;;;13.67;5.20;;;;;;;28.89;28.63;95155.41;4997276;28;20201;-70
2021/09/27 12:15:25;;;;;;;6.40;5.10;;;;;;;29.23;29.14;95152.81;5011213;28;20687;-71
2021/09/27 12:17:53;;;;;;;19.57;5.90;;;;;;;29.35;30.95;95156.03;5010105;28;20221;-69